Time;durP1;ratioP1;P1;durP2;ratioP2;P2;SDS_P1;SDS_P2;PMS_P1;PMS_P2;Temp;Humidity;BMP_temperature;BMP_pressure;BME280_temperature;BME280_humidity;BME280_pressure;Samples;Min_cycle;Max_cycle;Signal;HPM_P1;HPM_P2
2022/07/06 00:01:55;;;;;;;2.67;1.23;;;;;;;17.90;76.36;97141.97;5151915;27;20177;-54
2022/07/06 00:04:25;;;;;;;1.38;1.27;;;;;;;17.89;77.81;97139.47;5154956;27;20200;-54
2022/07/06 00:06:52;;;;;;;1.63;1.20;;;;;;;17.88;78.16;97141.34;5152431;27;20200;-53
2022/07/06 00:09:19;;;;;;;1.70;1.52;;;;;;;17.87;77.92;97147.69;5151906;27;20220;-53
2022/07/06 00:11:47;;;;;;;3.05;1.63;;;;;;;17.87;79.07;97142.34;5153595;27;20200;-54
2022/07/06 00:14:15;;;;;;;2.28;1.52;;;;;;;17.85;79.22;97144.34;5154459;27;20185;-54
2022/07/06 00:16:44;;;;;;;1.40;1.30;;;;;;;17.85;79.75;97144.34;5153513;27;20210;-53
2022/07/06 00:19:11;;;;;;;2.88;1.60;;;;;;;17.92;78.52;97142.63;5142772;27;20200;-55
2022/07/06 00:21:38;;;;;;;1.63;1.35;;;;;;;17.91;79.71;97142.81;5133645;27;20215;-52
2022/07/06 00:24:06;;;;;;;2.55;1.58;;;;;;;17.86;80.96;97140.66;5133043;27;20224;-53
2022/07/06 00:26:33;;;;;;;1.65;1.50;;;;;;;17.97;76.56;97135.91;5132405;27;20275;-54
2022/07/06 00:29:11;;;;;;;1.52;1.42;;;;;;;17.90;78.52;97136.63;5132552;27;20208;-53
2022/07/06 00:31:38;;;;;;;2.00;1.48;;;;;;;17.91;77.63;97137.47;5132575;27;20196;-53
2022/07/06 00:34:05;;;;;;;2.10;1.42;;;;;;;17.92;77.52;97131.13;5134122;27;20212;-53
2022/07/06 00:36:32;;;;;;;1.92;1.35;;;;;;;17.89;78.38;97132.28;5153082;27;20188;-54
2022/07/06 00:38:58;;;;;;;1.55;1.45;;;;;;;17.90;75.96;97141.97;5153138;27;20224;-60
2022/07/06 00:41:25;;;;;;;2.22;1.60;;;;;;;17.87;76.85;97141.50;5154578;27;20243;-54
2022/07/06 00:43:55;;;;;;;1.63;1.52;;;;;;;17.77;79.78;97144.41;5157360;27;20189;-55
2022/07/06 00:46:27;;;;;;;1.67;1.52;;;;;;;17.79;79.18;97138.88;5140663;28;20228;-53
2022/07/06 00:48:53;;;;;;;1.45;1.35;;;;;;;17.74;80.34;97139.41;5152892;28;20198;-54
2022/07/06 00:51:20;;;;;;;4.43;1.58;;;;;;;17.74;80.66;97146.59;5156313;27;20215;-53
2022/07/06 00:53:52;;;;;;;1.92;1.83;;;;;;;17.71;81.49;97152.31;5156016;27;20200;-53
2022/07/06 00:56:19;;;;;;;1.42;1.27;;;;;;;17.70;80.82;97156.81;5155624;28;20185;-54
2022/07/06 00:58:46;;;;;;;1.67;1.58;;;;;;;17.75;80.66;97148.25;5156485;27;20192;-54
2022/07/06 01:01:14;;;;;;;1.65;1.55;;;;;;;17.77;80.04;97149.75;5155426;28;20253;-60
2022/07/06 01:03:42;;;;;;;1.67;1.58;;;;;;;17.81;79.30;97137.69;5156692;27;20193;-53
2022/07/06 01:06:11;;;;;;;2.40;1.80;;;;;;;17.87;78.34;97137.00;5155350;27;20196;-54
2022/07/06 01:08:38;;;;;;;2.50;1.52;;;;;;;17.89;77.65;97128.75;5149760;28;20203;-54
2022/07/06 01:11:05;;;;;;;2.60;1.55;;;;;;;17.81;80.40;97132.34;5134031;28;20227;-53
2022/07/06 01:13:33;;;;;;;3.13;1.92;;;;;;;17.75;81.29;97134.88;5134498;27;20537;-54
2022/07/06 01:16:00;;;;;;;2.33;1.63;;;;;;;17.75;80.39;97138.38;5136635;27;20196;-53
2022/07/06 01:18:27;;;;;;;2.08;1.30;;;;;;;17.69;80.07;97128.38;5136328;27;20211;-53
2022/07/06 01:21:10;;;;;;;1.90;1.80;;;;;;;17.72;78.94;97135.22;5136385;27;20207;-53
2022/07/06 01:23:40;;;;;;;7.65;1.95;;;;;;;17.66;79.46;97142.13;5135387;27;20212;-53
2022/07/06 01:26:09;;;;;;;1.83;1.73;;;;;;;17.60;81.58;97140.16;5136255;27;20231;-53
2022/07/06 01:28:36;;;;;;;1.55;1.48;;;;;;;17.49;82.31;97147.69;5135539;27;20631;-52
2022/07/06 01:31:02;;;;;;;5.00;2.17;;;;;;;17.43;82.06;97141.19;5135945;27;20192;-54
2022/07/06 01:33:29;;;;;;;1.52;1.40;;;;;;;17.47;82.00;97141.66;5136187;27;20297;-53
2022/07/06 01:35:55;;;;;;;3.25;1.30;;;;;;;17.27;83.27;97128.72;5135833;27;20211;-53
2022/07/06 01:38:23;;;;;;;2.20;1.63;;;;;;;17.27;84.28;97133.22;5135599;27;20196;-53
2022/07/06 01:40:49;;;;;;;2.03;1.55;;;;;;;17.21;85.11;97124.06;5136153;27;20224;-54
2022/07/06 01:43:16;;;;;;;1.42;1.35;;;;;;;17.10;85.95;97132.47;5135613;27;20232;-53
2022/07/06 01:45:42;;;;;;;2.97;1.58;;;;;;;17.20;82.66;97133.09;5134817;27;20608;-53
2022/07/06 01:48:09;;;;;;;1.90;1.80;;;;;;;17.13;82.87;97140.13;5135405;27;20203;-53
2022/07/06 01:50:36;;;;;;;1.70;1.63;;;;;;;17.16;82.68;97139.78;5135429;27;21328;-54
2022/07/06 01:53:04;;;;;;;1.80;1.70;;;;;;;17.02;84.93;97139.66;5135631;27;20196;-53
2022/07/06 01:55:34;;;;;;;2.22;1.65;;;;;;;16.92;85.21;97132.69;5135388;27;20292;-54
2022/07/06 01:58:03;;;;;;;3.53;1.73;;;;;;;16.80;85.79;97131.34;5135738;27;20277;-53
2022/07/06 02:00:30;;;;;;;3.15;1.95;;;;;;;16.82;85.79;97134.69;5134843;27;20258;-53
2022/07/06 02:02:56;;;;;;;1.75;1.65;;;;;;;16.81;85.98;97138.38;5135417;27;20188;-54
2022/07/06 02:05:23;;;;;;;1.75;1.65;;;;;;;16.83;86.19;97140.84;5134690;27;20212;-54
2022/07/06 02:07:51;;;;;;;1.70;1.60;;;;;;;16.85;85.01;97136.19;5135176;27;20632;-53
2022/07/06 02:10:18;;;;;;;2.10;1.63;;;;;;;16.79;85.45;97129.69;5135588;27;20295;-54
2022/07/06 02:12:46;;;;;;;1.65;1.52;;;;;;;16.78;86.31;97132.53;5135393;27;20197;-54
2022/07/06 02:15:13;;;;;;;2.78;1.77;;;;;;;16.74;85.84;97134.72;5135665;27;20192;-53
2022/07/06 02:17:39;;;;;;;2.63;1.90;;;;;;;16.66;85.83;97140.06;5135559;27;20200;-54
2022/07/06 02:20:08;;;;;;;2.50;1.63;;;;;;;16.57;86.22;97135.72;5135427;27;20204;-53
2022/07/06 02:22:35;;;;;;;2.40;1.40;;;;;;;16.49;86.99;97133.03;5135763;27;20189;-53
2022/07/06 02:25:01;;;;;;;2.55;1.80;;;;;;;16.43;88.27;97137.22;5134919;27;20220;-53
2022/07/06 02:27:28;;;;;;;2.67;1.60;;;;;;;16.43;87.39;97136.38;5136010;27;20218;-53
2022/07/06 02:29:56;;;;;;;2.20;1.97;;;;;;;16.36;87.56;97132.72;5136737;27;20200;-54
2022/07/06 02:32:24;;;;;;;1.98;1.65;;;;;;;16.34;86.70;97135.53;5135377;27;20208;-53
2022/07/06 02:34:52;;;;;;;1.70;1.60;;;;;;;16.27;88.02;97133.69;5134664;27;20207;-54
2022/07/06 02:37:19;;;;;;;3.00;1.73;;;;;;;16.36;86.22;97132.72;5135254;27;20325;-54
2022/07/06 02:39:45;;;;;;;2.10;1.90;;;;;;;16.28;87.63;97146.03;5134985;27;20203;-53
2022/07/06 02:42:12;;;;;;;2.28;1.65;;;;;;;16.24;86.39;97136.69;5134985;27;20251;-53
2022/07/06 02:44:38;;;;;;;1.93;1.80;;;;;;;16.31;86.25;97135.03;5135271;27;20243;-53
2022/07/06 02:47:06;;;;;;;2.37;1.90;;;;;;;16.19;86.99;97142.53;5135210;27;20196;-54
2022/07/06 02:49:33;;;;;;;1.90;1.60;;;;;;;16.16;87.79;97136.69;5136717;27;20660;-53
2022/07/06 02:51:59;;;;;;;1.80;1.70;;;;;;;16.16;88.78;97139.34;5144296;27;20220;-54
2022/07/06 02:54:26;;;;;;;1.80;1.33;;;;;;;16.11;87.28;97141.69;5157156;27;20256;-56
2022/07/06 02:56:53;;;;;;;2.57;1.77;;;;;;;16.11;86.73;97134.53;5155260;27;20220;-54
2022/07/06 02:59:20;;;;;;;1.60;1.50;;;;;;;16.11;86.66;97141.69;5157769;27;20207;-53
2022/07/06 03:01:49;;;;;;;2.23;1.50;;;;;;;16.07;86.90;97154.53;5160907;27;20188;-53
2022/07/06 03:04:17;;;;;;;2.80;1.80;;;;;;;16.13;86.05;97151.19;5159151;27;20242;-53
2022/07/06 03:06:44;;;;;;;2.53;1.73;;;;;;;16.02;88.32;97148.00;5158872;27;20235;-53
2022/07/06 03:09:12;;;;;;;1.90;1.50;;;;;;;16.02;87.43;97148.00;5161358;27;20204;-54
2022/07/06 03:11:38;;;;;;;4.67;1.67;;;;;;;15.98;87.81;97146.69;5155985;27;20216;-53
2022/07/06 03:14:05;;;;;;;3.90;1.53;;;;;;;15.99;87.93;97151.00;5158002;27;20189;-54
2022/07/06 03:16:32;;;;;;;1.77;1.67;;;;;;;15.96;87.55;97156.66;5161266;27;20180;-53
2022/07/06 03:18:59;;;;;;;1.77;1.67;;;;;;;16.02;87.59;97156.84;5161379;27;20204;-53
2022/07/06 03:21:29;;;;;;;3.30;2.23;;;;;;;16.04;86.52;97154.88;5159829;27;20188;-53
2022/07/06 03:23:56;;;;;;;2.07;1.90;;;;;;;16.08;85.22;97155.38;5135363;27;20309;-53
2022/07/06 03:26:23;;;;;;;2.10;1.73;;;;;;;16.09;83.49;97159.69;5133722;27;20234;-53
2022/07/06 03:28:55;;;;;;;2.00;1.90;;;;;;;16.06;85.33;97162.69;5133363;27;20208;-54
2022/07/06 03:31:21;;;;;;;2.10;1.50;;;;;;;16.08;84.71;97166.88;5133363;27;20200;-53
2022/07/06 03:33:48;;;;;;;1.97;1.60;;;;;;;16.12;83.84;97164.72;5132957;27;20200;-53
2022/07/06 03:36:17;;;;;;;2.03;1.80;;;;;;;16.11;81.33;97163.03;5131828;27;20536;-54
2022/07/06 03:38:47;;;;;;;3.10;1.70;;;;;;;16.03;83.97;97163.03;5133459;27;20207;-53
2022/07/06 03:41:14;;;;;;;2.73;1.77;;;;;;;16.13;83.47;97166.38;5132790;27;20196;-52
2022/07/06 03:43:40;;;;;;;3.33;2.90;;;;;;;16.12;81.16;97162.06;5132307;27;20218;-52
2022/07/06 03:46:07;;;;;;;3.10;2.80;;;;;;;16.12;82.80;97168.19;5132970;27;20228;-53
2022/07/06 03:48:33;;;;;;;3.03;2.17;;;;;;;16.07;85.42;97164.38;5133184;27;20204;-53
2022/07/06 03:51:00;;;;;;;1.43;1.43;;;;;;;16.11;82.48;97165.72;5132995;27;20211;-53
2022/07/06 03:53:28;;;;;;;1.80;1.70;;;;;;;16.02;83.47;97174.69;5133117;27;20200;-53
2022/07/06 03:58:43;;;;;;;2.30;2.10;;;;;;;15.98;83.70;97176.84;5133042;27;20637;-53
2022/07/06 04:01:10;;;;;;;2.40;1.70;;;;;;;16.00;82.16;97166.03;5132793;27;20192;-53
2022/07/06 04:03:36;;;;;;;6.67;2.03;;;;;;;16.02;82.57;97172.00;5132141;27;20291;-53
2022/07/06 04:06:03;;;;;;;2.93;2.00;;;;;;;16.04;83.52;97170.03;5132460;27;20221;-52
2022/07/06 04:08:29;;;;;;;3.70;1.80;;;;;;;15.96;85.88;97167.34;5132142;27;20211;-54
2022/07/06 04:10:57;;;;;;;2.30;1.80;;;;;;;15.97;84.74;97169.84;5132595;27;20216;-52
2022/07/06 04:13:26;;;;;;;1.97;1.80;;;;;;;15.97;85.13;97164.53;5132247;27;20650;-53
2022/07/06 04:15:53;;;;;;;3.30;1.87;;;;;;;15.99;85.76;97169.69;5132805;27;20196;-52
2022/07/06 04:18:19;;;;;;;6.30;2.03;;;;;;;16.06;86.66;97168.03;5132162;27;20512;-52
2022/07/06 04:20:46;;;;;;;1.80;1.70;;;;;;;16.33;84.81;97165.06;5131355;27;20224;-52
2022/07/06 04:23:14;;;;;;;1.80;1.70;;;;;;;16.44;85.21;97170.06;5132337;27;20204;-53
2022/07/06 04:25:40;;;;;;;1.90;1.70;;;;;;;16.65;84.42;97170.41;5132370;27;20243;-53
2022/07/06 04:28:08;;;;;;;2.43;2.23;;;;;;;17.02;82.71;97177.06;5132227;27;20216;-53
2022/07/06 04:30:35;;;;;;;4.30;1.80;;;;;;;17.00;82.05;97176.41;5131988;27;20208;-53
2022/07/06 04:33:01;;;;;;;3.42;1.70;;;;;;;17.30;80.47;97172.97;5131680;27;20628;-53
2022/07/06 04:35:28;;;;;;;2.28;2.00;;;;;;;17.89;77.50;97175.09;5132298;27;20598;-53
2022/07/06 04:37:55;;;;;;;1.77;1.55;;;;;;;18.01;77.46;97174.69;5132288;27;20216;-53
2022/07/06 04:40:21;;;;;;;1.80;1.70;;;;;;;18.20;77.53;97184.97;5131512;27;20296;-54
2022/07/06 04:42:48;;;;;;;2.08;1.88;;;;;;;18.32;77.61;97183.53;5131349;27;20224;-53
2022/07/06 04:45:16;;;;;;;5.10;2.45;;;;;;;18.25;77.21;97187.94;5131393;27;20227;-53
2022/07/06 04:47:44;;;;;;;2.88;1.92;;;;;;;18.12;77.08;97191.19;5136083;27;20304;-54
2022/07/06 04:50:10;;;;;;;2.72;2.00;;;;;;;18.24;78.47;97187.13;5139022;27;20208;-54
2022/07/06 04:52:37;;;;;;;2.30;1.92;;;;;;;18.06;79.52;97183.03;5139103;27;20279;-54
2022/07/06 04:55:04;;;;;;;2.00;1.80;;;;;;;18.11;79.04;97186.84;5138850;27;20200;-53
2022/07/06 04:57:31;;;;;;;3.55;2.13;;;;;;;18.36;79.42;97190.19;5138701;27;20239;-54
2022/07/06 04:59:58;;;;;;;2.42;2.22;;;;;;;18.42;80.12;97183.31;5137592;27;20232;-54
2022/07/06 05:02:26;;;;;;;3.78;2.03;;;;;;;18.64;78.86;97188.69;5139022;27;20208;-55
2022/07/06 05:04:52;;;;;;;3.70;2.10;;;;;;;18.65;78.60;97190.34;5141706;27;20295;-54
2022/07/06 05:07:19;;;;;;;2.20;2.00;;;;;;;18.49;79.13;97189.63;5164785;27;20197;-54
2022/07/06 05:09:46;;;;;;;2.40;1.80;;;;;;;18.40;81.53;97181.63;5159272;27;20192;-55
2022/07/06 05:12:15;;;;;;;1.85;1.70;;;;;;;18.30;81.17;97186.41;5151466;27;20200;-54
2022/07/06 05:14:43;;;;;;;2.17;1.70;;;;;;;18.30;80.79;97182.88;5139839;27;20205;-54
2022/07/06 05:17:10;;;;;;;2.35;2.15;;;;;;;18.36;81.16;97184.84;5139492;27;20849;-54
2022/07/06 05:19:40;;;;;;;2.67;1.75;;;;;;;18.47;80.72;97187.09;5139624;27;20287;-54
2022/07/06 05:22:08;;;;;;;2.00;1.80;;;;;;;18.69;81.58;97188.97;5139057;27;20192;-54
2022/07/06 05:24:37;;;;;;;3.47;2.28;;;;;;;19.09;76.31;97182.41;5137273;27;20664;-54
2022/07/06 05:27:05;;;;;;;2.28;2.08;;;;;;;19.29;77.81;97191.59;5138223;27;20220;-55
2022/07/06 05:29:31;;;;;;;3.03;2.03;;;;;;;19.47;72.27;97191.25;5139156;27;20276;-54
2022/07/06 05:32:01;;;;;;;2.00;1.90;;;;;;;19.76;71.91;97191.25;5138893;27;20295;-54
2022/07/06 05:34:28;;;;;;;2.28;2.08;;;;;;;19.93;65.05;97191.84;5138926;27;20192;-54
2022/07/06 05:36:56;;;;;;;3.08;2.75;;;;;;;20.15;63.90;97196.25;5139243;27;20189;-54
2022/07/06 05:39:23;;;;;;;5.03;2.88;;;;;;;20.45;62.27;97197.00;5138863;27;20249;-54
2022/07/06 05:41:51;;;;;;;2.35;2.17;;;;;;;20.62;63.15;97193.03;5137628;27;20240;-55
2022/07/06 05:44:18;;;;;;;4.63;2.63;;;;;;;20.71;59.92;97199.13;5138836;27;20283;-54
2022/07/06 05:46:46;;;;;;;3.60;2.35;;;;;;;20.96;61.33;97200.41;5137865;27;20228;-54
2022/07/06 05:52:03;;;;;;;2.63;2.40;;;;;;;21.32;58.30;97205.66;5138781;27;20532;-53
2022/07/06 05:54:29;;;;;;;2.95;2.40;;;;;;;21.44;57.40;97203.25;5138634;27;20208;-55
2022/07/06 05:56:56;;;;;;;5.35;1.95;;;;;;;21.67;58.21;97207.34;5138599;27;20764;-53
2022/07/06 05:59:22;;;;;;;3.53;2.22;;;;;;;21.75;53.57;97203.66;5135331;27;20289;-55
2022/07/06 06:01:49;;;;;;;3.00;2.28;;;;;;;21.72;58.14;97207.56;5135045;27;20628;-54
2022/07/06 06:04:16;;;;;;;5.82;2.17;;;;;;;21.73;57.34;97209.22;5135468;27;20283;-54
2022/07/06 06:06:48;;;;;;;4.63;1.95;;;;;;;22.02;55.82;97213.53;5135332;27;20226;-53
2022/07/06 06:09:18;;;;;;;3.70;1.98;;;;;;;22.01;55.74;97217.25;5133919;27;20185;-55
2022/07/06 06:11:46;;;;;;;3.20;2.33;;;;;;;22.06;55.51;97213.97;5134863;27;20188;-55
2022/07/06 06:14:12;;;;;;;3.10;2.13;;;;;;;22.25;52.31;97213.19;5135245;27;20211;-55
2022/07/06 06:16:39;;;;;;;4.35;2.10;;;;;;;22.41;53.14;97209.31;5135970;27;20214;-54
2022/07/06 06:19:05;;;;;;;2.55;1.70;;;;;;;22.67;54.56;97206.72;5135668;27;20516;-54
2022/07/06 06:21:33;;;;;;;1.95;1.80;;;;;;;22.87;52.52;97210.28;5135138;27;20192;-54
2022/07/06 06:23:59;;;;;;;5.45;2.10;;;;;;;23.04;51.45;97208.00;5135562;27;20217;-54
2022/07/06 06:26:27;;;;;;;4.90;1.88;;;;;;;23.16;49.75;97217.13;5135560;27;20215;-53
2022/07/06 06:28:54;;;;;;;3.63;2.25;;;;;;;22.91;53.32;97213.38;5135124;27;20283;-54
2022/07/06 06:31:21;;;;;;;3.00;2.13;;;;;;;23.16;51.75;97214.44;5134634;27;20201;-53
2022/07/06 06:33:49;;;;;;;1.80;1.70;;;;;;;23.26;51.38;97212.16;5137453;27;20628;-54
2022/07/06 06:36:16;;;;;;;1.80;1.70;;;;;;;23.38;49.21;97209.66;5134873;27;20192;-55
2022/07/06 06:38:43;;;;;;;3.85;1.88;;;;;;;23.59;49.05;97212.97;5134570;27;20705;-55
2022/07/06 06:41:09;;;;;;;2.65;1.80;;;;;;;23.77;49.09;97213.13;5134641;27;20204;-54
2022/07/06 06:43:38;;;;;;;2.53;1.77;;;;;;;23.74;46.20;97210.84;5134806;27;20207;-54
2022/07/06 06:46:07;;;;;;;3.28;1.60;;;;;;;23.87;46.98;97222.66;5134839;27;20221;-55
2022/07/06 06:48:34;;;;;;;2.30;1.90;;;;;;;24.12;47.18;97220.91;5134224;27;20215;-55
2022/07/06 06:51:01;;;;;;;1.60;1.50;;;;;;;24.21;47.10;97219.66;5133229;27;20534;-54
2022/07/06 06:53:28;;;;;;;2.10;1.90;;;;;;;24.43;43.37;97215.59;5134139;27;20291;-54
2022/07/06 06:56:00;;;;;;;3.42;1.85;;;;;;;24.40;44.50;97216.03;5134884;27;20201;-55
2022/07/06 06:58:26;;;;;;;2.50;1.85;;;;;;;24.47;45.04;97216.81;5134100;27;20323;-55
2022/07/06 07:00:55;;;;;;;3.55;1.85;;;;;;;24.58;44.66;97218.84;5134663;27;20299;-54
2022/07/06 07:03:22;;;;;;;3.70;1.80;;;;;;;24.58;44.98;97210.75;5134233;27;20316;-54
2022/07/06 07:05:49;;;;;;;1.80;1.60;;;;;;;24.75;44.34;97208.34;5134679;27;20235;-54
2022/07/06 07:08:16;;;;;;;3.35;1.70;;;;;;;24.80;44.28;97203.06;5134600;27;20230;-54
2022/07/06 07:10:43;;;;;;;3.50;1.92;;;;;;;24.98;43.10;97196.94;5134092;27;20214;-53
2022/07/06 07:13:09;;;;;;;2.20;2.08;;;;;;;24.79;43.01;97204.16;5134399;27;20200;-55
2022/07/06 07:15:36;;;;;;;2.72;1.77;;;;;;;25.15;42.52;97198.88;5133771;27;20204;-54
2022/07/06 07:18:11;;;;;;;2.55;2.03;;;;;;;25.03;43.53;97199.84;5134299;27;20214;-53
2022/07/06 07:20:38;;;;;;;1.75;1.65;;;;;;;25.02;44.22;97193.59;5144697;27;20207;-54
2022/07/06 07:23:06;;;;;;;2.25;1.85;;;;;;;25.23;44.91;97189.66;5149220;27;20197;-53
2022/07/06 07:25:34;;;;;;;3.45;1.50;;;;;;;25.19;44.23;97193.84;5139144;27;20632;-54
2022/07/06 07:28:01;;;;;;;1.60;1.50;;;;;;;25.48;42.78;97198.59;5136205;27;20272;-55
2022/07/06 07:30:29;;;;;;;2.35;1.77;;;;;;;25.68;40.61;97199.22;5132902;27;20201;-53
2022/07/06 07:32:57;;;;;;;2.00;1.90;;;;;;;25.51;41.76;97194.63;5133860;27;20208;-54
2022/07/06 07:35:25;;;;;;;2.10;1.92;;;;;;;25.53;43.89;97190.66;5133842;27;20537;-54
2022/07/06 07:37:52;;;;;;;3.33;1.60;;;;;;;25.22;42.18;97199.66;5133506;27;20292;-54
2022/07/06 07:40:20;;;;;;;2.03;1.83;;;;;;;25.60;43.91;97196.00;5133868;27;20279;-55
2022/07/06 07:42:46;;;;;;;2.05;1.83;;;;;;;26.08;42.48;97198.78;5132797;27;20220;-55
2022/07/06 07:45:13;;;;;;;3.45;2.30;;;;;;;25.70;42.73;97199.84;5133234;27;20192;-54
2022/07/06 07:47:40;;;;;;;1.90;1.80;;;;;;;26.03;42.71;97196.78;5133231;27;20224;-54
2022/07/06 07:50:09;;;;;;;1.98;1.80;;;;;;;26.01;43.67;97195.34;5133702;27;20192;-54
2022/07/06 07:52:39;;;;;;;1.98;1.85;;;;;;;25.97;43.34;97197.66;5133270;27;20624;-54
2022/07/06 07:55:07;;;;;;;3.38;2.13;;;;;;;26.01;41.40;97195.34;5133101;27;20607;-54
2022/07/06 07:57:33;;;;;;;4.82;2.15;;;;;;;26.05;41.84;97193.81;5133084;27;20196;-54
2022/07/06 08:00:00;;;;;;;2.10;2.00;;;;;;;26.05;40.45;97194.66;5133223;27;20632;-54
2022/07/06 08:02:27;;;;;;;2.55;1.92;;;;;;;25.89;41.42;97194.44;5134122;27;20199;-55
2022/07/06 08:04:53;;;;;;;3.33;1.88;;;;;;;25.62;39.66;97193.91;5134284;27;20925;-54
2022/07/06 08:07:20;;;;;;;3.20;1.80;;;;;;;25.43;42.90;97190.31;5134851;27;20234;-54
2022/07/06 08:09:48;;;;;;;2.55;2.00;;;;;;;25.33;42.84;97189.97;5135219;27;20295;-55
2022/07/06 08:12:15;;;;;;;2.28;2.10;;;;;;;25.16;42.82;97191.59;5133288;27;20541;-55
2022/07/06 08:14:41;;;;;;;2.60;1.73;;;;;;;25.54;43.92;97195.00;5132944;27;20199;-54
2022/07/06 08:17:08;;;;;;;2.22;1.92;;;;;;;25.67;43.41;97194.91;5132489;27;20209;-55
2022/07/06 08:19:35;;;;;;;2.30;2.20;;;;;;;25.48;44.63;97187.75;5132435;27;20200;-54
2022/07/06 08:22:06;;;;;;;6.72;2.13;;;;;;;25.50;43.28;97190.25;5132564;27;20200;-54
2022/07/06 08:24:33;;;;;;;2.28;2.03;;;;;;;25.82;42.07;97193.69;5132594;27;20199;-55
2022/07/06 08:27:02;;;;;;;2.60;2.05;;;;;;;25.72;45.09;97192.31;5133172;27;20303;-54
2022/07/06 08:29:29;;;;;;;2.80;2.05;;;;;;;25.96;43.49;97187.06;5132673;27;20218;-53
2022/07/06 08:31:56;;;;;;;3.60;2.30;;;;;;;26.25;42.98;97186.31;5132604;27;20208;-55
2022/07/06 08:34:22;;;;;;;4.72;2.10;;;;;;;26.28;44.41;97183.16;5133336;27;20196;-54
2022/07/06 08:36:49;;;;;;;3.38;2.38;;;;;;;26.44;42.52;97189.81;5132650;27;20200;-55
2022/07/06 08:39:17;;;;;;;2.10;1.98;;;;;;;26.61;43.43;97182.66;5133026;27;20287;-54
2022/07/06 08:41:47;;;;;;;2.58;2.20;;;;;;;26.59;42.89;97193.78;5132043;27;20687;-54
2022/07/06 08:44:18;;;;;;;3.25;2.45;;;;;;;26.57;41.63;97187.72;5133029;27;20211;-54
2022/07/06 08:46:45;;;;;;;4.30;2.38;;;;;;;26.37;41.82;97200.75;5132512;27;20218;-53
2022/07/06 08:49:14;;;;;;;3.47;2.63;;;;;;;26.51;40.28;97199.50;5132331;27;20212;-53
2022/07/06 08:51:41;;;;;;;1.90;1.75;;;;;;;26.62;40.16;97201.44;5132263;28;20287;-55
2022/07/06 08:54:08;;;;;;;2.20;2.08;;;;;;;25.99;42.46;97205.59;5132823;28;20279;-54
2022/07/06 08:56:35;;;;;;;2.55;1.83;;;;;;;26.36;44.06;97206.41;5132568;28;20201;-52
2022/07/06 08:59:08;;;;;;;3.15;2.03;;;;;;;26.77;43.76;97209.16;5133101;28;20203;-53
2022/07/06 09:01:36;;;;;;;2.53;2.13;;;;;;;26.53;40.93;97207.44;5133110;28;20303;-54
2022/07/06 09:04:04;;;;;;;5.22;3.08;;;;;;;26.54;42.52;97209.91;5132877;28;20202;-54
2022/07/06 09:06:31;;;;;;;2.97;2.33;;;;;;;26.05;41.76;97213.63;5133007;28;20224;-55
2022/07/06 09:08:58;;;;;;;3.13;2.20;;;;;;;26.08;41.98;97206.91;5132112;27;20311;-54
2022/07/06 09:11:26;;;;;;;3.08;2.00;;;;;;;26.49;43.19;97220.63;5132801;28;20211;-54
2022/07/06 09:13:53;;;;;;;2.63;2.03;;;;;;;26.77;42.68;97220.03;5131599;28;20621;-54
2022/07/06 09:16:28;;;;;;;2.75;2.20;;;;;;;26.93;41.44;97213.13;5132470;28;20227;-54
2022/07/06 09:18:58;;;;;;;2.53;2.00;;;;;;;26.83;41.68;97208.25;5132124;28;20226;-54
2022/07/06 09:21:27;;;;;;;4.30;2.20;;;;;;;26.84;41.98;97209.94;5132477;28;20196;-55
2022/07/06 09:23:56;;;;;;;2.22;1.83;;;;;;;27.08;41.35;97216.22;5132157;28;20204;-55
2022/07/06 09:26:22;;;;;;;2.38;2.00;;;;;;;27.16;42.14;97218.63;5132594;28;20204;-54
2022/07/06 09:28:49;;;;;;;3.55;1.60;;;;;;;27.10;41.57;97205.97;5132785;28;20614;-53
2022/07/06 09:31:16;;;;;;;3.75;1.90;;;;;;;26.88;40.20;97208.41;5133143;27;20268;-54
2022/07/06 09:33:56;;;;;;;2.40;1.85;;;;;;;26.80;43.02;97206.00;5146263;27;20204;-55
2022/07/06 09:36:48;;;;;;;4.25;2.40;;;;;;;27.18;39.65;97211.06;5153203;27;20207;-54
2022/07/06 09:39:25;;;;;;;3.67;2.15;;;;;;;26.99;40.87;97206.78;5131171;27;20237;-53
2022/07/06 09:41:53;;;;;;;4.53;2.10;;;;;;;27.14;42.21;97213.41;5136243;27;20254;-54
2022/07/06 09:44:22;;;;;;;1.77;1.67;;;;;;;27.23;42.59;97213.06;5135625;27;20209;-54
2022/07/06 09:46:50;;;;;;;2.38;1.58;;;;;;;27.09;38.85;97217.91;5136237;27;21452;-54
2022/07/06 09:49:22;;;;;;;2.28;1.60;;;;;;;27.46;38.71;97211.22;5136483;27;20295;-54
2022/07/06 09:51:49;;;;;;;1.77;1.58;;;;;;;27.52;40.59;97218.47;5136140;27;20521;-54
2022/07/06 09:54:16;;;;;;;2.92;2.58;;;;;;;27.49;39.90;97220.81;5135655;27;20204;-55
2022/07/06 09:56:46;;;;;;;2.72;2.50;;;;;;;27.63;39.69;97223.03;5136296;27;20573;-55
2022/07/06 09:59:15;;;;;;;3.17;2.05;;;;;;;27.60;39.51;97215.34;5135769;27;20212;-54
2022/07/06 10:01:43;;;;;;;3.13;2.20;;;;;;;27.53;38.10;97209.22;5136087;27;20201;-54
2022/07/06 10:04:13;;;;;;;2.10;1.88;;;;;;;27.63;38.61;97214.88;5134645;27;20200;-54
2022/07/06 10:06:42;;;;;;;2.30;2.03;;;;;;;27.73;38.83;97218.91;5135749;27;20295;-54
2022/07/06 10:09:10;;;;;;;3.08;1.75;;;;;;;27.99;37.92;97208.34;5135379;27;20215;-54
2022/07/06 10:11:39;;;;;;;1.80;1.67;;;;;;;27.82;37.79;97210.16;5135073;27;20280;-54
2022/07/06 10:14:08;;;;;;;3.80;2.10;;;;;;;27.93;36.94;97209.31;5133954;27;20204;-54
2022/07/06 10:16:36;;;;;;;4.75;2.70;;;;;;;28.01;38.69;97205.41;5135467;27;20249;-55
2022/07/06 10:19:05;;;;;;;2.90;1.85;;;;;;;28.20;41.21;97193.31;5134876;27;20625;-54
2022/07/06 10:21:36;;;;;;;2.65;2.00;;;;;;;28.27;39.52;97198.63;5135359;27;20216;-54
2022/07/06 10:24:10;;;;;;;3.13;1.80;;;;;;;28.16;39.50;97200.31;5135043;27;20185;-55
2022/07/06 10:26:38;;;;;;;5.07;2.15;;;;;;;28.35;39.27;97201.78;5134924;27;20200;-54
2022/07/06 10:29:06;;;;;;;2.40;1.90;;;;;;;28.20;39.68;97209.63;5135790;27;20203;-55
2022/07/06 10:31:35;;;;;;;3.97;2.17;;;;;;;28.25;40.11;97190.72;5134768;27;20189;-55
2022/07/06 10:34:04;;;;;;;3.13;2.40;;;;;;;28.24;40.35;97193.66;5135115;27;20653;-54
2022/07/06 10:36:31;;;;;;;1.90;1.80;;;;;;;28.49;38.19;97186.81;5133611;27;20196;-55
2022/07/06 10:41:02;;;;;;;2.30;2.10;;;;;;;28.62;39.66;97185.72;5134979;27;20204;-52
2022/07/06 10:41:49;;;;;;;2.78;2.15;;;;;;;28.81;38.85;97183.63;5134570;27;20224;-54
2022/07/06 10:44:16;;;;;;;2.45;1.67;;;;;;;28.74;37.01;97177.50;5136151;27;20235;-54
2022/07/06 10:46:53;;;;;;;2.33;1.60;;;;;;;28.95;38.64;97177.63;5135517;27;20208;-55
2022/07/06 10:49:20;;;;;;;1.70;1.60;;;;;;;29.06;38.73;97176.72;5135296;27;20200;-53
2022/07/06 10:51:50;;;;;;;5.75;2.03;;;;;;;29.20;40.25;97166.31;5134224;27;20625;-54
2022/07/06 10:54:18;;;;;;;3.67;2.08;;;;;;;29.30;36.61;97177.41;5134906;27;20200;-55
2022/07/06 10:56:46;;;;;;;5.15;1.90;;;;;;;29.24;38.66;97166.66;5134121;27;20196;-54
2022/07/06 10:59:15;;;;;;;2.38;2.17;;;;;;;29.42;39.51;97169.16;5133784;27;20532;-55
2022/07/06 11:02:15;;;;;;;2.08;1.80;;;;;;;29.24;35.65;97153.88;5134684;27;20212;-54
2022/07/06 11:04:43;;;;;;;3.00;2.10;;;;;;;29.41;38.47;97153.88;5136329;27;20196;-55
2022/07/06 11:07:10;;;;;;;2.83;2.05;;;;;;;29.61;40.07;97163.19;5140962;27;20216;-52
2022/07/06 11:09:38;;;;;;;2.05;1.90;;;;;;;29.32;36.74;97153.47;5156980;27;20180;-54
2022/07/06 11:12:13;;;;;;;2.40;1.95;;;;;;;29.23;36.44;97154.94;5158608;27;20205;-55
2022/07/06 11:14:41;;;;;;;3.70;1.50;;;;;;;28.42;39.92;97164.38;5157916;27;20252;-55
2022/07/06 11:17:10;;;;;;;2.13;1.70;;;;;;;28.47;39.25;97161.78;5156801;27;20197;-54
2022/07/06 11:19:39;;;;;;;4.55;2.00;;;;;;;28.71;37.73;97153.50;5157623;27;20209;-54
2022/07/06 11:22:12;;;;;;;3.83;2.00;;;;;;;28.67;39.20;97154.00;5154126;27;20284;-55
2022/07/06 11:24:40;;;;;;;3.83;2.28;;;;;;;28.86;39.66;97151.06;5158300;27;20189;-55
2022/07/06 11:27:08;;;;;;;3.22;1.58;;;;;;;28.96;37.07;97148.50;5158517;27;20188;-53
2022/07/06 11:29:37;;;;;;;3.05;1.33;;;;;;;29.05;36.69;97147.03;5158724;27;20200;-54
2022/07/06 11:32:09;;;;;;;3.60;1.50;;;;;;;29.24;34.46;97145.69;5146654;27;20211;-55
2022/07/06 11:34:37;;;;;;;5.25;1.73;;;;;;;29.17;38.52;97142.31;5134739;27;20267;-55
2022/07/06 11:37:08;;;;;;;2.08;1.80;;;;;;;29.22;34.80;97145.13;5132478;27;20283;-55
2022/07/06 11:39:39;;;;;;;1.70;1.60;;;;;;;29.30;38.87;97144.72;5133610;27;20216;-55
2022/07/06 11:42:06;;;;;;;3.83;2.15;;;;;;;29.27;37.02;97134.31;5133541;27;20322;-54
2022/07/06 11:44:36;;;;;;;3.13;2.10;;;;;;;29.27;36.63;97142.50;5136406;27;20193;-53